createdAt,value
2018-01-14T00:00:33.631Z,1.60
2018-01-14T00:03:01.219Z,1.60
2018-01-14T00:05:35.052Z,1.60
2018-01-14T00:08:02.700Z,1.50
2018-01-14T00:10:30.333Z,1.60
2018-01-14T00:12:57.793Z,1.60
2018-01-14T00:15:25.378Z,1.60
2018-01-14T00:17:56.511Z,1.60
2018-01-14T00:20:29.814Z,1.60
2018-01-14T00:22:57.573Z,1.60
2018-01-14T00:25:25.061Z,1.60
2018-01-14T00:27:52.723Z,1.60
2018-01-14T00:30:20.456Z,1.60
2018-01-14T00:32:47.936Z,1.50
2018-01-14T00:35:15.393Z,1.50
2018-01-14T00:37:42.877Z,1.50
2018-01-14T00:40:10.360Z,1.40
2018-01-14T00:42:37.823Z,1.30
2018-01-14T00:45:05.289Z,1.40
2018-01-14T00:47:32.745Z,1.30
2018-01-14T00:50:06.048Z,1.30
2018-01-14T00:52:33.609Z,1.30
2018-01-14T00:55:02.249Z,1.30
2018-01-14T00:57:29.743Z,1.30
2018-01-14T00:59:57.283Z,1.30
2018-01-14T01:02:24.756Z,1.40
2018-01-14T01:04:52.196Z,1.40
2018-01-14T01:07:19.677Z,1.30
2018-01-14T01:09:47.126Z,1.40
2018-01-14T01:12:15.616Z,1.40
2018-01-14T01:14:43.245Z,1.40
2018-01-14T01:17:10.728Z,1.40
2018-01-14T01:19:42.904Z,1.50
2018-01-14T01:22:10.529Z,1.40
2018-01-14T01:24:38.048Z,1.40
2018-01-14T01:27:05.524Z,1.40
2018-01-14T01:29:33.000Z,1.50
2018-01-14T01:32:00.473Z,1.50
2018-01-14T01:34:27.921Z,1.50
2018-01-14T01:36:55.413Z,1.50
2018-01-14T01:39:23.952Z,1.40
2018-01-14T01:41:51.448Z,1.40
2018-01-14T01:44:18.912Z,1.40
2018-01-14T01:46:46.376Z,1.40
2018-01-14T01:49:17.773Z,1.40
2018-01-14T01:51:45.233Z,1.40
2018-01-14T01:54:13.382Z,1.40
2018-01-14T01:56:40.825Z,1.40
2018-01-14T01:59:08.269Z,1.40
2018-01-14T02:01:35.865Z,1.40
2018-01-14T02:04:03.300Z,1.40
2018-01-14T02:06:31.043Z,1.40
2018-01-14T02:08:58.688Z,1.40
2018-01-14T02:11:26.829Z,1.40
2018-01-14T02:13:54.288Z,1.50
2018-01-14T02:16:21.737Z,1.50
2018-01-14T02:18:49.269Z,1.50
2018-01-14T02:21:16.717Z,1.40
2018-01-14T02:23:44.452Z,1.50
2018-01-14T02:26:11.899Z,1.40
2018-01-14T02:28:39.355Z,1.40
2018-01-14T02:31:06.828Z,1.40
2018-01-14T02:33:34.280Z,1.50
2018-01-14T02:36:01.740Z,1.40
2018-01-14T02:38:30.128Z,1.40
2018-01-14T02:40:57.773Z,1.40
2018-01-14T02:43:25.225Z,1.40
2018-01-14T02:45:52.700Z,1.50
2018-01-14T02:48:20.149Z,1.50
2018-01-14T02:50:47.618Z,1.50
2018-01-14T02:53:15.133Z,1.50
2018-01-14T02:55:43.548Z,1.50
2018-01-14T02:58:11.194Z,1.40
2018-01-14T03:00:38.664Z,1.50
2018-01-14T03:03:06.877Z,1.50
2018-01-14T03:05:38.076Z,1.50
2018-01-14T03:08:05.548Z,1.50
2018-01-14T03:10:32.996Z,1.50
2018-01-14T03:13:00.455Z,1.50
2018-01-14T03:15:27.950Z,1.50
2018-01-14T03:17:56.184Z,1.50
2018-01-14T03:20:23.636Z,1.50
2018-01-14T03:22:51.111Z,1.50
2018-01-14T03:25:18.748Z,1.50
2018-01-14T03:27:47.748Z,1.50
2018-01-14T03:30:15.309Z,1.40
2018-01-14T03:32:42.757Z,1.40
2018-01-14T03:35:10.241Z,1.40
2018-01-14T03:37:37.994Z,1.40
2018-01-14T03:40:06.018Z,1.40
2018-01-14T03:42:33.467Z,1.40
2018-01-14T03:45:00.955Z,1.40
2018-01-14T03:47:28.432Z,1.40
2018-01-14T03:49:56.410Z,1.50
2018-01-14T03:52:23.854Z,1.50
2018-01-14T03:54:52.113Z,1.60
2018-01-14T03:57:20.115Z,1.60
2018-01-14T03:59:52.493Z,1.50
2018-01-14T04:02:21.156Z,1.50
2018-01-14T04:04:48.629Z,1.50
2018-01-14T04:07:16.074Z,1.50
2018-01-14T04:09:43.733Z,1.50
2018-01-14T04:12:11.176Z,1.60
2018-01-14T04:14:39.589Z,1.70
2018-01-14T04:17:07.087Z,1.60
2018-01-14T04:19:34.520Z,1.60
2018-01-14T04:22:01.972Z,1.60
2018-01-14T04:24:29.462Z,1.70
2018-01-14T04:26:56.928Z,1.70
2018-01-14T04:29:24.397Z,1.80
2018-01-14T04:31:51.876Z,1.80
2018-01-14T04:34:19.354Z,1.70
2018-01-14T04:36:48.292Z,1.60
2018-01-14T04:39:15.769Z,1.60
2018-01-14T04:41:43.233Z,1.70
2018-01-14T04:44:10.681Z,1.70
2018-01-14T04:46:38.160Z,1.70
2018-01-14T04:49:05.606Z,1.70
2018-01-14T04:51:33.097Z,1.70
2018-01-14T04:54:01.456Z,1.60
2018-01-14T04:56:29.116Z,1.50
2018-01-14T04:58:56.560Z,1.50
2018-01-14T05:01:25.386Z,1.40
2018-01-14T05:03:52.905Z,1.40
2018-01-14T05:06:20.357Z,1.40
2018-01-14T05:08:51.152Z,1.50
2018-01-14T05:11:18.580Z,1.50
2018-01-14T05:13:46.063Z,1.50
2018-01-14T05:16:13.749Z,1.50
2018-01-14T05:18:41.213Z,1.60
2018-01-14T05:21:08.730Z,1.60
2018-01-14T05:23:36.190Z,1.60
2018-01-14T05:26:05.119Z,1.70
2018-01-14T05:28:32.591Z,1.70
2018-01-14T05:31:00.081Z,1.70
2018-01-14T05:33:27.732Z,1.60
2018-01-14T05:35:55.192Z,1.60
2018-01-14T05:38:26.128Z,1.70
2018-01-14T05:40:54.855Z,1.70
2018-01-14T05:43:23.190Z,1.70
2018-01-14T05:45:50.668Z,1.70
2018-01-14T05:48:19.042Z,1.70
2018-01-14T05:50:47.314Z,1.70
2018-01-14T05:53:19.492Z,1.60
2018-01-14T05:55:50.311Z,1.60
2018-01-14T05:58:17.793Z,1.60
2018-01-14T06:00:45.449Z,1.60
2018-01-14T06:03:12.897Z,1.60
2018-01-14T06:05:40.364Z,1.60
2018-01-14T06:08:07.833Z,1.60
2018-01-14T06:10:35.290Z,1.60
2018-01-14T06:13:04.328Z,1.70
2018-01-14T06:15:32.098Z,1.70
2018-01-14T06:17:59.753Z,1.70
2018-01-14T06:20:28.132Z,1.70
2018-01-14T06:22:55.712Z,1.80
2018-01-14T06:25:26.297Z,1.80
2018-01-14T06:27:53.699Z,1.80
2018-01-14T06:30:21.165Z,1.80
2018-01-14T06:32:48.872Z,1.80
2018-01-14T06:35:16.366Z,1.80
2018-01-14T06:37:43.844Z,1.80
2018-01-14T06:40:11.956Z,1.80
2018-01-14T06:42:39.686Z,1.70
2018-01-14T06:45:07.141Z,1.80
2018-01-14T06:47:34.634Z,1.80
2018-01-14T06:50:02.419Z,1.80
2018-01-14T06:52:29.868Z,1.80
2018-01-14T06:54:57.368Z,1.80
2018-01-14T06:57:25.392Z,1.80
2018-01-14T06:59:52.841Z,1.80
2018-01-14T07:02:20.548Z,1.70
2018-01-14T07:04:48.025Z,1.70
2018-01-14T07:07:15.476Z,1.60
2018-01-14T07:09:42.937Z,1.50
2018-01-14T07:12:10.921Z,1.50
2018-01-14T07:14:39.282Z,1.50
2018-01-14T07:17:06.813Z,1.50
2018-01-14T07:19:34.293Z,1.50
2018-01-14T07:22:01.829Z,1.40
2018-01-14T07:24:29.285Z,1.40
2018-01-14T07:27:04.080Z,1.40
2018-01-14T07:29:33.287Z,1.40
2018-01-14T07:32:00.742Z,1.40
2018-01-14T07:34:28.208Z,1.50
2018-01-14T07:36:55.712Z,1.50
2018-01-14T07:39:23.826Z,1.50
2018-01-14T07:41:51.722Z,1.50
2018-01-14T07:44:19.181Z,1.50
2018-01-14T07:46:46.695Z,1.60
2018-01-14T07:49:14.142Z,1.70
2018-01-14T07:51:41.628Z,1.70
2018-01-14T07:54:09.415Z,1.70
2018-01-14T07:56:41.396Z,1.80
2018-01-14T07:59:09.044Z,1.90
2018-01-14T08:01:36.480Z,1.90
2018-01-14T08:04:03.958Z,2.00
2018-01-14T08:06:32.366Z,2.00
2018-01-14T08:09:00.580Z,2.20
2018-01-14T08:11:28.274Z,2.20
2018-01-14T08:13:56.622Z,2.30
2018-01-14T08:16:24.080Z,2.40
2018-01-14T08:18:53.575Z,2.50
2018-01-14T08:21:21.860Z,2.50
2018-01-14T08:23:49.377Z,2.60
2018-01-14T08:26:21.458Z,2.70
2018-01-14T08:28:49.087Z,2.80
2018-01-14T08:31:16.868Z,2.80
2018-01-14T08:33:44.319Z,2.80
2018-01-14T08:36:11.784Z,2.90
2018-01-14T08:38:39.742Z,2.90
2018-01-14T08:41:10.817Z,3.00
2018-01-14T08:43:38.559Z,3.00
2018-01-14T08:46:06.258Z,3.10
2018-01-14T08:48:33.753Z,3.10
2018-01-14T08:51:01.220Z,3.10
2018-01-14T08:53:28.689Z,2.90
2018-01-14T08:55:56.176Z,2.90
2018-01-14T08:58:23.652Z,2.80
2018-01-14T09:00:51.141Z,2.90
2018-01-14T09:03:18.633Z,2.90
2018-01-14T09:05:46.871Z,3.10
2018-01-14T09:08:14.774Z,3.10
2018-01-14T09:10:43.022Z,3.10
2018-01-14T09:13:10.514Z,3.10
2018-01-14T09:15:38.066Z,3.00
2018-01-14T09:18:06.292Z,3.10
2018-01-14T09:20:34.712Z,3.20
2018-01-14T09:23:02.204Z,3.20
2018-01-14T09:25:29.641Z,3.30
2018-01-14T09:27:57.100Z,3.50
2018-01-14T09:30:36.329Z,3.60
2018-01-14T09:33:03.808Z,3.60
2018-01-14T09:35:32.087Z,3.70
2018-01-14T09:37:59.868Z,3.60
2018-01-14T09:40:28.206Z,3.80
2018-01-14T09:42:55.699Z,3.90
2018-01-14T09:45:23.405Z,3.90
2018-01-14T09:47:50.873Z,3.90
2018-01-14T09:50:18.788Z,3.90
2018-01-14T09:52:46.477Z,4.00
2018-01-14T09:55:14.153Z,4.10
2018-01-14T09:57:41.609Z,4.20
2018-01-14T10:00:09.389Z,4.20
2018-01-14T10:02:37.791Z,4.30
2018-01-14T10:05:05.283Z,4.20
2018-01-14T10:07:33.086Z,4.10
2018-01-14T10:10:00.565Z,4.20
2018-01-14T10:12:28.765Z,4.20
2018-01-14T10:14:56.818Z,4.20
2018-01-14T10:17:24.870Z,4.20
2018-01-14T10:19:52.418Z,4.20
2018-01-14T10:22:19.886Z,4.30
2018-01-14T10:24:47.548Z,4.40
2018-01-14T10:27:15.094Z,4.50
2018-01-14T10:29:42.576Z,4.50
2018-01-14T10:32:10.985Z,4.60
2018-01-14T10:34:38.438Z,4.60
2018-01-14T10:37:06.153Z,4.70
2018-01-14T10:39:33.630Z,4.70
2018-01-14T10:42:01.092Z,4.70
2018-01-14T10:44:28.560Z,4.70
2018-01-14T10:46:56.454Z,4.80
2018-01-14T10:49:24.853Z,4.80
2018-01-14T10:51:52.328Z,4.90
2018-01-14T10:54:19.816Z,4.90
2018-01-14T10:56:47.279Z,4.80
2018-01-14T10:59:14.766Z,4.70
2018-01-14T11:01:43.405Z,4.70
2018-01-14T11:04:10.938Z,4.60
2018-01-14T11:06:38.628Z,4.60
2018-01-14T11:09:06.112Z,4.70
2018-01-14T11:11:33.613Z,4.60
2018-01-14T11:14:04.654Z,4.50
2018-01-14T11:16:32.121Z,4.40
2018-01-14T11:18:59.617Z,4.30
2018-01-14T11:21:27.088Z,4.30
2018-01-14T11:23:54.540Z,4.30
2018-01-14T11:26:22.605Z,4.30
2018-01-14T11:28:59.224Z,4.30
2018-01-14T11:31:28.853Z,4.30
2018-01-14T11:33:56.438Z,4.40
2018-01-14T11:36:24.078Z,4.50
2018-01-14T11:38:51.986Z,4.60
2018-01-14T11:41:19.527Z,4.70
2018-01-14T11:43:47.144Z,4.70
2018-01-14T11:46:14.589Z,4.80
2018-01-14T11:48:42.081Z,4.90
2018-01-14T11:51:09.604Z,4.90
2018-01-14T11:53:37.876Z,4.90
2018-01-14T11:56:05.358Z,4.80
2018-01-14T11:58:32.808Z,4.80
2018-01-14T12:01:00.240Z,4.60
2018-01-14T12:03:27.727Z,4.50
2018-01-14T12:05:55.233Z,4.40
2018-01-14T12:08:22.724Z,4.30
2018-01-14T12:10:50.301Z,4.20
2018-01-14T12:13:17.842Z,4.10
2018-01-14T12:15:45.885Z,4.10
2018-01-14T12:18:13.348Z,4.10
2018-01-14T12:20:40.812Z,4.10
2018-01-14T12:23:08.313Z,4.20
2018-01-14T12:25:50.538Z,4.30
2018-01-14T12:28:20.297Z,4.50
2018-01-14T12:30:51.789Z,4.60
2018-01-14T12:33:19.246Z,4.60
2018-01-14T12:35:48.424Z,4.50
2018-01-14T12:38:15.986Z,4.50
2018-01-14T12:40:43.869Z,4.40
2018-01-14T12:43:11.327Z,4.30
2018-01-14T12:45:39.589Z,4.20
2018-01-14T12:48:08.052Z,4.20
2018-01-14T12:50:35.512Z,4.20
2018-01-14T12:53:03.077Z,4.20
2018-01-14T12:55:30.556Z,4.20
2018-01-14T12:57:58.783Z,4.30
2018-01-14T13:00:29.717Z,4.30
2018-01-14T13:02:57.433Z,4.50
2018-01-14T13:05:24.876Z,4.60
2018-01-14T13:07:52.367Z,4.60
2018-01-14T13:10:19.807Z,4.60
2018-01-14T13:12:47.285Z,4.60
2018-01-14T13:15:15.689Z,4.60
2018-01-14T13:17:43.170Z,4.60
2018-01-14T13:20:12.019Z,4.70
2018-01-14T13:22:40.050Z,4.70
2018-01-14T13:25:07.623Z,4.70
2018-01-14T13:27:35.865Z,4.80
2018-01-14T13:30:03.326Z,4.80
2018-01-14T13:32:30.857Z,4.90
2018-01-14T13:34:58.338Z,5.00
2018-01-14T13:37:27.942Z,5.20
2018-01-14T13:39:55.748Z,5.30
2018-01-14T13:42:27.333Z,5.30
2018-01-14T13:44:54.840Z,5.20
2018-01-14T13:47:30.408Z,5.00
2018-01-14T13:49:57.896Z,5.00
2018-01-14T13:52:25.377Z,4.90
2018-01-14T13:54:52.816Z,4.90
2018-01-14T13:57:20.588Z,4.80
2018-01-14T13:59:48.079Z,4.80
2018-01-14T14:02:18.958Z,4.60
2018-01-14T14:04:46.416Z,4.50
2018-01-14T14:07:14.560Z,4.40
2018-01-14T14:09:42.855Z,4.30
2018-01-14T14:12:11.060Z,4.30
2018-01-14T14:14:39.493Z,4.20
2018-01-14T14:17:07.714Z,4.20
2018-01-14T14:19:35.197Z,4.10
2018-01-14T14:22:02.683Z,4.10
2018-01-14T14:24:32.666Z,4.00
2018-01-14T14:27:03.946Z,4.00
2018-01-14T14:29:33.698Z,3.90
2018-01-14T14:32:01.287Z,3.90
2018-01-14T14:34:29.693Z,3.90
2018-01-14T14:36:58.298Z,3.80
2018-01-14T14:39:25.804Z,3.90
2018-01-14T14:41:53.339Z,3.80
2018-01-14T14:44:20.941Z,3.80
2018-01-14T14:46:48.565Z,3.70
2018-01-14T14:49:16.207Z,3.70
2018-01-14T14:51:43.766Z,3.60
2018-01-14T14:54:11.380Z,3.50
2018-01-14T14:56:39.125Z,3.50
2018-01-14T14:59:09.067Z,3.50
2018-01-14T15:01:36.576Z,3.50
2018-01-14T15:04:04.026Z,3.50
2018-01-14T15:06:31.541Z,3.50
2018-01-14T15:08:59.814Z,3.50
2018-01-14T15:11:27.393Z,3.50
2018-01-14T15:13:55.588Z,3.40
2018-01-14T15:16:23.072Z,3.40
2018-01-14T15:18:50.585Z,3.40
2018-01-14T15:21:18.023Z,3.40
2018-01-14T15:23:51.553Z,3.30
2018-01-14T15:26:19.078Z,3.30
2018-01-14T15:28:47.067Z,3.20
2018-01-14T15:31:14.602Z,3.10
2018-01-14T15:33:42.541Z,3.10
2018-01-14T15:36:10.617Z,3.00
2018-01-14T15:38:38.149Z,2.90
2018-01-14T15:41:06.956Z,2.80
2018-01-14T15:43:34.609Z,2.80
2018-01-14T15:46:02.422Z,2.70
2018-01-14T15:48:30.847Z,2.60
2018-01-14T15:50:58.987Z,2.50
2018-01-14T15:53:27.273Z,2.40
2018-01-14T15:55:56.242Z,2.30
2018-01-14T15:58:23.776Z,2.30
2018-01-14T16:00:51.224Z,2.30
2018-01-14T16:03:23.197Z,2.10
2018-01-14T16:05:51.102Z,2.10
2018-01-14T16:08:18.624Z,2.10
2018-01-14T16:10:46.327Z,2.00
2018-01-14T16:13:14.778Z,1.80
2018-01-14T16:15:42.254Z,1.90
2018-01-14T16:18:09.820Z,1.90
2018-01-14T16:20:37.417Z,1.80
2018-01-14T16:23:04.989Z,1.80
2018-01-14T16:25:32.513Z,1.90
2018-01-14T16:27:59.928Z,1.80
2018-01-14T16:30:27.382Z,1.90
2018-01-14T16:32:54.836Z,2.00
2018-01-14T16:35:22.790Z,2.10
2018-01-14T16:37:50.224Z,2.20
2018-01-14T16:40:18.097Z,2.20
2018-01-14T16:42:45.695Z,2.10
2018-01-14T16:45:13.177Z,2.00
2018-01-14T16:47:42.345Z,2.00
2018-01-14T16:50:13.297Z,2.00
2018-01-14T16:52:42.942Z,2.00
2018-01-14T16:55:11.544Z,2.00
2018-01-14T16:57:40.047Z,2.00
2018-01-14T17:00:07.883Z,2.10
2018-01-14T17:02:35.361Z,2.10
2018-01-14T17:05:02.860Z,2.00
2018-01-14T17:07:30.662Z,2.00
2018-01-14T17:09:58.562Z,1.90
2018-01-14T17:12:28.394Z,1.80
2018-01-14T17:14:58.018Z,1.70
2018-01-14T17:17:27.074Z,1.60
2018-01-14T17:19:58.404Z,1.50
2018-01-14T17:22:29.043Z,1.40
2018-01-14T17:24:56.513Z,1.30
2018-01-14T17:27:24.591Z,1.30
2018-01-14T17:29:53.023Z,1.20
2018-01-14T17:32:20.477Z,1.10
2018-01-14T17:34:51.712Z,1.10
2018-01-14T17:37:19.485Z,1.20
2018-01-14T17:39:47.340Z,1.20
2018-01-14T17:42:15.647Z,1.10
2018-01-14T17:44:43.158Z,1.10
2018-01-14T17:47:10.995Z,1.20
2018-01-14T17:49:39.205Z,1.10
2018-01-14T17:52:07.447Z,1.10
2018-01-14T17:54:35.473Z,1.10
2018-01-14T17:57:02.985Z,1.00
2018-01-14T17:59:30.490Z,0.90
2018-01-14T18:01:58.192Z,0.70
2018-01-14T18:04:27.288Z,0.70
2018-01-14T18:06:54.905Z,0.70
2018-01-14T18:09:23.063Z,0.70
2018-01-14T18:11:51.839Z,0.50
2018-01-14T18:14:19.299Z,0.50
2018-01-14T18:16:58.907Z,0.50
2018-01-14T18:19:26.456Z,0.50
2018-01-14T18:21:53.946Z,0.30
2018-01-14T18:24:22.337Z,0.20
2018-01-14T18:26:49.987Z,0.30
2018-01-14T18:29:17.431Z,0.30
2018-01-14T18:31:45.492Z,0.30
2018-01-14T18:34:13.563Z,0.30
2018-01-14T18:36:42.570Z,0.20
2018-01-14T18:39:10.512Z,0.10
2018-01-14T18:41:38.010Z,0.00
2018-01-14T18:44:05.849Z,-0.10
2018-01-14T18:46:33.325Z,-0.20
2018-01-14T18:49:00.910Z,-0.30
2018-01-14T18:51:28.411Z,-0.40
2018-01-14T18:53:55.961Z,-0.50
2018-01-14T18:56:23.463Z,-0.50
2018-01-14T18:58:51.086Z,-0.50
2018-01-14T19:01:18.555Z,-0.30
2018-01-14T19:03:46.195Z,0.00
2018-01-14T19:06:21.467Z,0.20
2018-01-14T19:08:49.125Z,0.40
2018-01-14T19:11:16.674Z,0.60
2018-01-14T19:13:44.188Z,0.70
2018-01-14T19:16:12.421Z,0.70
2018-01-14T19:18:40.837Z,0.60
2018-01-14T19:21:08.392Z,0.50
2018-01-14T19:23:36.620Z,0.20
2018-01-14T19:26:04.393Z,0.10
2018-01-14T19:28:31.895Z,0.00
2018-01-14T19:30:59.354Z,-0.20
2018-01-14T19:33:27.179Z,-0.30
2018-01-14T19:35:54.783Z,-0.40
2018-01-14T19:38:22.650Z,-0.50
2018-01-14T19:40:50.248Z,-0.60
2018-01-14T19:43:17.938Z,-0.70
2018-01-14T19:45:46.004Z,-0.90
2018-01-14T19:48:14.768Z,-0.90
2018-01-14T19:50:42.979Z,-1.00
2018-01-14T19:53:13.808Z,-1.00
2018-01-14T19:55:41.747Z,-1.00
2018-01-14T19:58:09.342Z,-1.10
2018-01-14T20:00:36.860Z,-1.10
2018-01-14T20:03:04.601Z,-1.10
2018-01-14T20:05:34.879Z,-1.10
2018-01-14T20:08:02.445Z,-1.20
2018-01-14T20:10:29.912Z,-1.30
2018-01-14T20:12:58.033Z,-1.30
2018-01-14T20:15:25.745Z,-1.40
2018-01-14T20:17:53.315Z,-1.40
2018-01-14T20:20:20.840Z,-1.50
2018-01-14T20:22:48.370Z,-1.50
2018-01-14T20:25:17.240Z,-1.50
2018-01-14T20:27:44.942Z,-1.60
2018-01-14T20:30:12.399Z,-1.50
2018-01-14T20:32:40.043Z,-1.50
2018-01-14T20:35:07.545Z,-1.60
2018-01-14T20:37:35.501Z,-1.60
2018-01-14T20:40:03.098Z,-1.50
2018-01-14T20:42:31.432Z,-1.50
2018-01-14T20:44:59.033Z,-1.50
2018-01-14T20:47:26.567Z,-1.50
2018-01-14T20:49:54.949Z,-1.50
2018-01-14T20:52:22.467Z,-1.60
2018-01-14T20:54:49.977Z,-1.60
2018-01-14T20:57:17.477Z,-1.70
2018-01-14T20:59:45.000Z,-1.70
2018-01-14T21:02:12.493Z,-1.60
2018-01-14T21:04:40.238Z,-1.70
2018-01-14T21:07:08.324Z,-1.70
2018-01-14T21:09:35.828Z,-1.70
2018-01-14T21:12:04.159Z,-1.70
2018-01-14T21:14:32.148Z,-1.80
2018-01-14T21:16:59.767Z,-1.80
2018-01-14T21:19:27.836Z,-1.80
2018-01-14T21:21:56.087Z,-1.70
2018-01-14T21:24:23.597Z,-1.70
2018-01-14T21:26:51.187Z,-1.70
2018-01-14T21:29:18.810Z,-1.80
2018-01-14T21:31:46.784Z,-1.90
2018-01-14T21:34:14.300Z,-2.00
2018-01-14T21:36:43.328Z,-2.00
2018-01-14T21:39:10.993Z,-2.00
2018-01-14T21:41:38.511Z,-2.00
2018-01-14T21:44:07.208Z,-2.10
2018-01-14T21:46:34.924Z,-2.10
2018-01-14T21:49:02.433Z,-2.10
2018-01-14T21:51:31.632Z,-2.20
2018-01-14T21:54:03.254Z,-2.20
2018-01-14T21:56:31.493Z,-2.30
2018-01-14T21:58:59.038Z,-2.20
2018-01-14T22:01:26.547Z,-2.20
2018-01-14T22:03:54.170Z,-2.20
2018-01-14T22:06:21.662Z,-2.20
2018-01-14T22:08:49.172Z,-2.10
2018-01-14T22:11:19.924Z,-2.20
2018-01-14T22:13:47.356Z,-2.20
2018-01-14T22:16:15.286Z,-2.20
2018-01-14T22:18:42.762Z,-2.20
2018-01-14T22:21:10.323Z,-2.20
2018-01-14T22:23:37.808Z,-2.30
2018-01-14T22:26:05.345Z,-2.20
2018-01-14T22:28:33.093Z,-2.20
2018-01-14T22:31:00.764Z,-2.30
2018-01-14T22:33:29.521Z,-2.30
2018-01-14T22:35:57.391Z,-2.30
2018-01-14T22:38:24.916Z,-2.40
2018-01-14T22:40:58.347Z,-2.50
2018-01-14T22:43:25.854Z,-2.50
2018-01-14T22:45:54.052Z,-2.40
2018-01-14T22:48:21.533Z,-2.40
2018-01-14T22:50:49.231Z,-2.40
2018-01-14T22:53:16.710Z,-2.40
2018-01-14T22:55:48.051Z,-2.40
2018-01-14T22:58:15.546Z,-2.40
2018-01-14T23:00:43.603Z,-2.40
2018-01-14T23:03:11.056Z,-2.40
2018-01-14T23:05:38.517Z,-2.40
2018-01-14T23:08:06.044Z,-2.50
2018-01-14T23:10:37.972Z,-2.40
2018-01-14T23:13:05.463Z,-2.40
2018-01-14T23:15:32.976Z,-2.40
2018-01-14T23:18:01.342Z,-2.40
2018-01-14T23:20:28.805Z,-2.50
2018-01-14T23:22:56.341Z,-2.50
2018-01-14T23:25:23.866Z,-2.50
2018-01-14T23:27:51.927Z,-2.50
2018-01-14T23:30:19.406Z,-2.50
2018-01-14T23:32:46.877Z,-2.50
2018-01-14T23:35:14.349Z,-2.60
2018-01-14T23:37:41.829Z,-2.60
2018-01-14T23:40:09.305Z,-2.70
2018-01-14T23:42:36.839Z,-2.70
2018-01-14T23:45:04.240Z,-2.70
2018-01-14T23:47:31.785Z,-2.70
2018-01-14T23:49:59.297Z,-2.70
2018-01-14T23:52:26.810Z,-2.70
2018-01-14T23:54:55.865Z,-2.60
2018-01-14T23:57:26.729Z,-2.60
2018-01-14T23:59:54.196Z,-2.60
